Time;durP1;ratioP1;P1;durP2;ratioP2;P2;SDS_P1;SDS_P2;PMS_P1;PMS_P2;Temp;Humidity;BMP_temperature;BMP_pressure;BME280_temperature;BME280_humidity;BME280_pressure;Samples;Min_cycle;Max_cycle;Signal;HPM_P1;HPM_P2
2022/03/28 00:02:11;;;;;;;8.48;5.55;;;;;;;;;;6090451;23;20033;-79
2022/03/28 00:04:39;;;;;;;11.73;5.15;;;;;;;;;;6062742;23;20034;-79
2022/03/28 00:07:07;;;;;;;6.55;4.55;;;;;;;;;;6063578;23;20025;-79
2022/03/28 00:09:35;;;;;;;14.55;7.32;;;;;;;;;;6092038;23;20034;-79
2022/03/28 00:12:03;;;;;;;9.23;4.50;;;;;;;;;;6099094;23;20025;-78
2022/03/28 00:14:31;;;;;;;9.25;6.88;;;;;;;;;;6063251;23;20458;-79
2022/03/28 00:16:59;;;;;;;21.13;7.45;;;;;;;;;;6095354;23;20026;-79
2022/03/28 00:19:27;;;;;;;13.32;5.68;;;;;;;;;;6098992;23;20026;-79
2022/03/28 00:21:56;;;;;;;7.22;5.35;;;;;;;;;;6063240;23;20347;-79
2022/03/28 00:24:29;;;;;;;10.38;5.63;;;;;;;;;;6087543;23;20454;-79
2022/03/28 00:26:57;;;;;;;7.82;4.70;;;;;;;;;;6098872;23;20014;-78
2022/03/28 00:29:25;;;;;;;12.10;5.20;;;;;;;;;;6092918;23;20022;-78
2022/03/28 00:31:53;;;;;;;10.98;6.40;;;;;;;;;;6098756;23;20019;-79
2022/03/28 00:34:23;;;;;;;10.35;5.82;;;;;;;;;;6089529;23;20026;-79
2022/03/28 00:36:51;;;;;;;6.03;4.05;;;;;;;;;;6096037;23;20034;-79
2022/03/28 00:39:20;;;;;;;8.10;4.85;;;;;;;;;;6097737;23;20474;-78
2022/03/28 00:41:49;;;;;;;10.82;5.97;;;;;;;;;;6091743;23;20053;-79
2022/03/28 00:44:17;;;;;;;8.20;5.75;;;;;;;;;;6097473;23;20014;-79
2022/03/28 00:46:45;;;;;;;8.80;5.65;;;;;;;;;;6098754;23;20748;-78
2022/03/28 00:49:14;;;;;;;16.95;5.68;;;;;;;;;;6093716;23;20033;-78
2022/03/28 00:51:42;;;;;;;11.70;5.53;;;;;;;;;;6098945;23;20030;-78
2022/03/28 00:54:11;;;;;;;9.15;4.35;;;;;;;;;;6089498;23;20041;-79
2022/03/28 00:56:43;;;;;;;8.40;6.47;;;;;;;;;;6070727;23;20027;-79
2022/03/28 00:59:12;;;;;;;14.82;8.40;;;;;;;;;;6098296;23;20018;-78
2022/03/28 01:01:40;;;;;;;8.65;4.50;;;;;;;;;;6092354;23;20037;-78
2022/03/28 01:04:09;;;;;;;7.90;5.72;;;;;;;;;;6098514;23;20021;-78
2022/03/28 01:06:37;;;;;;;8.63;4.65;;;;;;;;;;6088499;23;20038;-78
2022/03/28 01:09:06;;;;;;;13.32;5.97;;;;;;;;;;6067370;23;20026;-78
2022/03/28 01:11:35;;;;;;;7.28;4.80;;;;;;;;;;6073056;23;20335;-78
2022/03/28 01:14:03;;;;;;;11.15;5.32;;;;;;;;;;6065200;23;20037;-78
2022/03/28 01:18:05;;;;;;;10.45;5.85;;;;;;;;;;6097236;23;20018;-78
2022/03/28 01:19:19;;;;;;;15.20;10.73;;;;;;;;;;6093242;23;20253;-79
2022/03/28 01:21:47;;;;;;;8.98;5.40;;;;;;;;;;6091577;23;20033;-78
2022/03/28 01:24:15;;;;;;;9.57;5.97;;;;;;;;;;6097328;23;20308;-79
2022/03/28 01:26:43;;;;;;;9.90;5.95;;;;;;;;;;6098795;23;20021;-78
2022/03/28 01:29:13;;;;;;;11.77;6.97;;;;;;;;;;6086269;23;20031;-79
2022/03/28 01:31:41;;;;;;;8.57;5.22;;;;;;;;;;6073598;23;20072;-78
2022/03/28 01:34:19;;;;;;;19.35;6.25;;;;;;;;;;6090409;23;20038;-78
2022/03/28 01:36:47;;;;;;;12.23;4.25;;;;;;;;;;6070534;23;20034;-79
2022/03/28 01:39:15;;;;;;;9.07;6.05;;;;;;;;;;6097306;23;20025;-78
2022/03/28 01:41:46;;;;;;;6.65;4.82;;;;;;;;;;6066600;23;20354;-79
2022/03/28 01:44:20;;;;;;;11.70;6.55;;;;;;;;;;6062506;23;20605;-78
2022/03/28 01:46:48;;;;;;;7.15;4.30;;;;;;;;;;6098574;23;20014;-78
2022/03/28 01:49:18;;;;;;;11.02;4.93;;;;;;;;;;6093398;23;20022;-78
2022/03/28 01:51:47;;;;;;;11.95;4.63;;;;;;;;;;6098985;23;20023;-78
2022/03/28 01:54:16;;;;;;;9.35;7.03;;;;;;;;;;6089412;23;20026;-79
2022/03/28 01:57:00;;;;;;;7.97;4.93;;;;;;;;;;6094991;23;20030;-78
2022/03/28 02:00:16;;;;;;;22.63;9.38;;;;;;;;;;6098507;23;20658;-78
2022/03/28 02:03:19;;;;;;;14.55;6.25;;;;;;;;;;6095327;23;20026;-78
2022/03/28 02:05:47;;;;;;;7.57;6.13;;;;;;;;;;6092251;23;20034;-78
2022/03/28 02:08:15;;;;;;;12.32;7.47;;;;;;;;;;6098544;23;20021;-78
2022/03/28 02:10:43;;;;;;;9.23;5.88;;;;;;;;;;6101045;23;20014;-77
2022/03/28 02:13:11;;;;;;;6.50;5.90;;;;;;;;;;6096249;23;20044;-78
2022/03/28 02:15:41;;;;;;;11.35;6.47;;;;;;;;;;6091194;23;20018;-78
2022/03/28 02:18:14;;;;;;;7.70;5.28;;;;;;;;;;6089346;23;20052;-78
2022/03/28 02:20:42;;;;;;;7.13;5.13;;;;;;;;;;6098189;23;20023;-77
2022/03/28 02:23:10;;;;;;;18.90;7.60;;;;;;;;;;6099685;23;20420;-77
2022/03/28 02:25:39;;;;;;;12.05;4.53;;;;;;;;;;6040502;23;20390;-77
2022/03/28 02:28:07;;;;;;;15.60;5.47;;;;;;;;;;6100582;23;20049;-77
2022/03/28 02:30:35;;;;;;;12.52;6.35;;;;;;;;;;6089799;23;20023;-77
2022/03/28 02:33:03;;;;;;;10.68;5.63;;;;;;;;;;6096372;23;20030;-78
2022/03/28 02:35:31;;;;;;;7.25;4.97;;;;;;;;;;6100636;23;20704;-77
2022/03/28 02:38:01;;;;;;;13.00;4.85;;;;;;;;;;6091065;23;20033;-78
2022/03/28 02:40:30;;;;;;;11.90;5.70;;;;;;;;;;6098845;23;20473;-77
2022/03/28 02:42:58;;;;;;;11.18;6.93;;;;;;;;;;6100113;23;20014;-77
2022/03/28 02:45:27;;;;;;;11.73;5.28;;;;;;;;;;6094497;23;20030;-77
2022/03/28 02:47:55;;;;;;;10.93;5.43;;;;;;;;;;6040683;23;20447;-77
2022/03/28 02:50:23;;;;;;;7.35;6.00;;;;;;;;;;6090837;23;20026;-78
2022/03/28 02:52:51;;;;;;;13.07;6.82;;;;;;;;;;6096350;23;20034;-77
2022/03/28 02:55:19;;;;;;;7.70;5.03;;;;;;;;;;6099101;23;20537;-77
2022/03/28 02:57:53;;;;;;;9.95;6.55;;;;;;;;;;6088707;23;20027;-77
2022/03/28 03:00:25;;;;;;;10.57;9.13;;;;;;;;;;6098807;23;20014;-77
2022/03/28 03:02:53;;;;;;;20.55;6.47;;;;;;;;;;6090078;23;20018;-77
2022/03/28 03:05:23;;;;;;;8.40;6.10;;;;;;;;;;6095059;23;20354;-77
2022/03/28 03:07:51;;;;;;;15.50;7.15;;;;;;;;;;6098922;23;20031;-77
2022/03/28 03:10:19;;;;;;;10.88;6.43;;;;;;;;;;6090837;23;20032;-77
2022/03/28 03:12:47;;;;;;;10.45;6.50;;;;;;;;;;6097115;23;20033;-77
2022/03/28 03:15:15;;;;;;;11.40;7.25;;;;;;;;;;6092314;23;20022;-77
2022/03/28 03:17:43;;;;;;;17.75;8.55;;;;;;;;;;6092016;23;20026;-77
2022/03/28 03:20:11;;;;;;;14.23;7.50;;;;;;;;;;6099404;23;20025;-84
2022/03/28 03:22:39;;;;;;;16.30;6.75;;;;;;;;;;6062167;23;20023;-83
2022/03/28 03:25:07;;;;;;;14.43;6.93;;;;;;;;;;6095368;23;20045;-83
2022/03/28 03:27:37;;;;;;;12.00;8.75;;;;;;;;;;6073718;23;20021;-77
2022/03/28 03:30:16;;;;;;;12.32;6.75;;;;;;;;;;6063640;23;20349;-77
2022/03/28 03:33:14;;;;;;;17.52;6.93;;;;;;;;;;6095799;23;20461;-77
2022/03/28 03:36:31;;;;;;;15.48;6.78;;;;;;;;;;6081544;23;20029;-77
2022/03/28 03:40:05;;;;;;;16.30;9.68;;;;;;;;;;6062476;23;20034;-77
2022/03/28 03:43:16;;;;;;;13.05;7.47;;;;;;;;;;6096534;23;20034;-77
2022/03/28 03:46:04;;;;;;;18.55;10.15;;;;;;;;;;6042217;23;20593;-77
2022/03/28 03:48:32;;;;;;;14.75;7.65;;;;;;;;;;6071548;23;20021;-77
2022/03/28 03:51:00;;;;;;;11.15;6.90;;;;;;;;;;6064579;23;20450;-77
2022/03/28 03:53:28;;;;;;;15.30;8.52;;;;;;;;;;6067582;23;20481;-77
2022/03/28 03:55:56;;;;;;;17.17;9.05;;;;;;;;;;6073414;23;20021;-77
2022/03/28 03:58:25;;;;;;;8.75;6.72;;;;;;;;;;6063957;23;20027;-77
2022/03/28 04:00:54;;;;;;;9.88;7.20;;;;;;;;;;6096474;23;20782;-77
2022/03/28 04:03:22;;;;;;;15.40;8.35;;;;;;;;;;6073992;23;20477;-77
2022/03/28 04:05:52;;;;;;;12.52;8.05;;;;;;;;;;6092706;23;20026;-77
2022/03/28 04:08:24;;;;;;;14.25;6.60;;;;;;;;;;6096610;23;20034;-81
2022/03/28 04:10:52;;;;;;;12.63;7.63;;;;;;;;;;6099703;23;20021;-82
2022/03/28 04:13:20;;;;;;;14.32;7.50;;;;;;;;;;6094284;23;20037;-77
2022/03/28 04:15:48;;;;;;;11.57;9.52;;;;;;;;;;6099522;23;20015;-77
2022/03/28 04:18:16;;;;;;;11.90;5.88;;;;;;;;;;6089477;23;20026;-77
2022/03/28 04:21:04;;;;;;;14.80;8.02;;;;;;;;;;6096288;23;20034;-77
2022/03/28 04:24:09;;;;;;;12.40;6.63;;;;;;;;;;6098534;23;20451;-77
2022/03/28 04:26:37;;;;;;;11.55;7.28;;;;;;;;;;6088870;23;20022;-77
2022/03/28 04:29:05;;;;;;;12.05;8.20;;;;;;;;;;6094078;23;20083;-77
2022/03/28 04:31:33;;;;;;;14.68;11.32;;;;;;;;;;6099104;23;20014;-77
2022/03/28 04:34:01;;;;;;;9.70;6.30;;;;;;;;;;6091222;23;20027;-77
2022/03/28 04:36:29;;;;;;;12.93;8.40;;;;;;;;;;6097619;23;20343;-77
2022/03/28 04:38:58;;;;;;;12.73;8.88;;;;;;;;;;6098454;23;20608;-77
2022/03/28 04:41:26;;;;;;;11.95;8.18;;;;;;;;;;6093407;23;20462;-77
2022/03/28 04:43:54;;;;;;;12.15;8.35;;;;;;;;;;6088208;23;20018;-77
2022/03/28 04:46:22;;;;;;;16.90;8.57;;;;;;;;;;6063088;23;20053;-77
2022/03/28 04:48:50;;;;;;;17.48;7.05;;;;;;;;;;6095088;23;20034;-77
2022/03/28 04:51:18;;;;;;;13.10;8.13;;;;;;;;;;6099169;23;20014;-78
2022/03/28 04:53:46;;;;;;;14.35;8.85;;;;;;;;;;6091154;23;20061;-80
2022/03/28 04:56:14;;;;;;;15.18;8.73;;;;;;;;;;6097721;23;20350;-77
2022/03/28 04:58:42;;;;;;;13.35;8.13;;;;;;;;;;6072417;23;20019;-78
2022/03/28 05:01:10;;;;;;;19.17;11.30;;;;;;;;;;6088291;23;20030;-78
2022/03/28 05:03:38;;;;;;;15.57;8.88;;;;;;;;;;6068119;23;20018;-75
2022/03/28 05:06:08;;;;;;;12.52;7.10;;;;;;;;;;6090677;23;20027;-76
2022/03/28 05:08:37;;;;;;;34.40;10.25;;;;;;;;;;6061618;23;20712;-77
2022/03/28 05:11:05;;;;;;;13.55;8.38;;;;;;;;;;6098677;23;20015;-76
2022/03/28 05:13:33;;;;;;;12.90;10.52;;;;;;;;;;6092564;23;20037;-78
2022/03/28 05:16:02;;;;;;;14.43;9.20;;;;;;;;;;6098784;23;20019;-76
2022/03/28 05:18:31;;;;;;;11.48;7.55;;;;;;;;;;6087973;23;20027;-76
2022/03/28 05:20:59;;;;;;;11.00;7.97;;;;;;;;;;6094946;23;20031;-75
2022/03/28 05:23:27;;;;;;;18.08;10.88;;;;;;;;;;6097519;23;20025;-75
2022/03/28 05:25:55;;;;;;;15.98;9.45;;;;;;;;;;6090686;23;20022;-78
2022/03/28 05:28:23;;;;;;;22.88;9.40;;;;;;;;;;6097047;23;20030;-77
2022/03/28 05:30:52;;;;;;;22.40;9.15;;;;;;;;;;6073125;23;20018;-76
2022/03/28 05:33:21;;;;;;;20.70;10.70;;;;;;;;;;6092864;23;20033;-76
2022/03/28 05:35:50;;;;;;;16.80;7.68;;;;;;;;;;6073104;23;20025;-77
2022/03/28 05:38:19;;;;;;;10.38;7.68;;;;;;;;;;6087602;23;20034;-77
2022/03/28 05:40:47;;;;;;;13.45;8.02;;;;;;;;;;6070099;23;20037;-76
2022/03/28 05:43:15;;;;;;;16.33;9.07;;;;;;;;;;6100365;23;20025;-76
2022/03/28 05:45:43;;;;;;;15.13;9.65;;;;;;;;;;6093789;23;20026;-76
2022/03/28 05:48:11;;;;;;;21.42;9.80;;;;;;;;;;6100355;23;20018;-76
2022/03/28 05:50:39;;;;;;;12.88;7.82;;;;;;;;;;6089624;23;20653;-77
2022/03/28 05:53:07;;;;;;;16.55;9.73;;;;;;;;;;6095993;23;20031;-78
2022/03/28 05:55:35;;;;;;;16.90;8.07;;;;;;;;;;6100624;23;20029;-79
2022/03/28 05:58:03;;;;;;;13.55;7.75;;;;;;;;;;6091857;23;20356;-78
2022/03/28 06:00:31;;;;;;;15.80;9.80;;;;;;;;;;6098506;23;20025;-78
2022/03/28 06:02:59;;;;;;;15.20;9.00;;;;;;;;;;6099932;23;20026;-78
2022/03/28 06:05:39;;;;;;;15.85;9.40;;;;;;;;;;6094250;23;20033;-78
2022/03/28 06:08:08;;;;;;;13.93;9.20;;;;;;;;;;6073775;23;20014;-77
2022/03/28 06:11:04;;;;;;;;;;;;;;;;;;;;;
2022/03/28 06:13:47;;;;;;;;;;;;;;;;;;6068646;23;20035;-78
2022/03/28 06:16:15;;;;;;;17.35;8.77;;;;;;;;;;6099863;23;20431;-79
2022/03/28 06:18:44;;;;;;;21.00;9.63;;;;;;;;;;6074481;23;20018;-79
2022/03/28 06:21:12;;;;;;;26.20;13.85;;;;;;;;;;6096048;23;20742;-79
2022/03/28 06:23:40;;;;;;;15.13;9.20;;;;;;;;;;6099810;23;20018;-78
2022/03/28 06:26:10;;;;;;;14.98;10.73;;;;;;;;;;6066759;23;20030;-78
2022/03/28 06:28:39;;;;;;;15.80;8.13;;;;;;;;;;6097588;23;20030;-78
2022/03/28 06:31:08;;;;;;;12.73;8.43;;;;;;;;;;6100409;23;20021;-78
2022/03/28 06:33:37;;;;;;;16.55;9.77;;;;;;;;;;6039730;23;20027;-78
2022/03/28 06:36:05;;;;;;;16.58;8.07;;;;;;;;;;6100789;23;20029;-87
2022/03/28 06:38:41;;;;;;;19.73;9.40;;;;;;;;;;6063851;23;20362;-87
2022/03/28 06:41:16;;;;;;;11.80;8.63;;;;;;;;;;6040746;23;20089;-86
2022/03/28 06:43:50;;;;;;;34.95;10.18;;;;;;;;;;6065321;23;20022;-86
2022/03/28 06:46:33;;;;;;;21.27;11.00;;;;;;;;;;6041105;23;20022;-87
2022/03/28 06:50:09;;;;;;;23.70;9.05;;;;;;;;;;6003936;23;20035;-87
2022/03/28 06:53:29;;;;;;;45.60;10.98;;;;;;;;;;5969430;23;20023;-87
2022/03/28 06:56:52;;;;;;;40.50;12.70;;;;;;;;;;6000768;23;20543;-87
2022/03/28 06:59:29;;;;;;;12.60;8.73;;;;;;;;;;6015950;23;20026;-88
2022/03/28 07:02:03;;;;;;;13.85;8.80;;;;;;;;;;5949012;23;20034;-88
2022/03/28 07:05:16;;;;;;;14.50;9.65;;;;;;;;;;6003778;23;20036;-88
2022/03/28 07:12:06;;;;;;;13.13;7.32;;;;;;;;;;5956218;23;20565;-87
2022/03/28 07:14:34;;;;;;;12.48;7.22;;;;;;;;;;5979148;23;20082;-87
2022/03/28 07:17:38;;;;;;;;;;;;;;;;;;;;;
2022/03/28 07:20:11;;;;;;;10.75;7.85;;;;;;;;;;6035106;23;20042;-88
2022/03/28 07:22:51;;;;;;;13.95;8.98;;;;;;;;;;5977902;23;20031;-88
2022/03/28 07:25:24;;;;;;;13.02;7.63;;;;;;;;;;6004497;23;20035;-87
2022/03/28 07:27:53;;;;;;;10.13;7.88;;;;;;;;;;6008237;23;20027;-88
2022/03/28 07:30:30;;;;;;;15.45;9.75;;;;;;;;;;6029716;23;20052;-88
2022/03/28 07:33:02;;;;;;;15.27;7.93;;;;;;;;;;6028930;23;20027;-88
2022/03/28 07:35:32;;;;;;;10.43;8.18;;;;;;;;;;6005914;23;20023;-88
2022/03/28 07:38:01;;;;;;;13.18;8.57;;;;;;;;;;6030471;23;20023;-88
2022/03/28 07:40:30;;;;;;;13.75;7.50;;;;;;;;;;6065324;23;20159;-87
2022/03/28 07:42:58;;;;;;;13.63;8.48;;;;;;;;;;6039754;23;20018;-88
2022/03/28 07:45:26;;;;;;;12.52;6.57;;;;;;;;;;6068451;23;20026;-88
2022/03/28 07:47:54;;;;;;;19.48;9.15;;;;;;;;;;6097936;23;20022;-88
2022/03/28 07:50:22;;;;;;;11.90;8.32;;;;;;;;;;6063778;23;20037;-87
2022/03/28 07:52:51;;;;;;;10.35;7.63;;;;;;;;;;6096139;23;20033;-88
2022/03/28 07:55:20;;;;;;;18.63;9.35;;;;;;;;;;6097978;23;20014;-88
2022/03/28 07:57:48;;;;;;;9.73;8.73;;;;;;;;;;6091278;23;20033;-88
2022/03/28 08:00:17;;;;;;;13.10;7.35;;;;;;;;;;6097976;23;20033;-87
2022/03/28 08:02:54;;;;;;;9.07;7.07;;;;;;;;;;6098636;23;20014;-86
2022/03/28 08:05:22;;;;;;;25.02;19.27;;;;;;;;;;6066981;23;20034;-86
2022/03/28 08:07:53;;;;;;;10.80;8.18;;;;;;;;;;6037303;23;20026;-85
2022/03/28 08:10:39;;;;;;;;;;;;;;;;;;;;;
2022/03/28 08:13:44;;;;;;;13.52;8.00;;;;;;;;;;6078224;23;20034;-87
2022/03/28 08:16:13;;;;;;;12.95;9.15;;;;;;;;;;6073973;23;20019;-86
2022/03/28 08:18:41;;;;;;;16.92;9.30;;;;;;;;;;6062706;23;20492;-87
2022/03/28 08:21:09;;;;;;;15.38;9.25;;;;;;;;;;6080438;23;20050;-84
2022/03/28 08:23:38;;;;;;;12.02;9.32;;;;;;;;;;6097177;23;20080;-85
2022/03/28 08:26:08;;;;;;;10.05;7.57;;;;;;;;;;6089891;23;20355;-85
2022/03/28 08:28:36;;;;;;;14.85;9.43;;;;;;;;;;6095747;23;20022;-84
2022/03/28 08:31:04;;;;;;;11.65;9.13;;;;;;;;;;6097389;23;20057;-83
2022/03/28 08:33:32;;;;;;;15.32;8.75;;;;;;;;;;6091941;23;20026;-85
2022/03/28 08:36:00;;;;;;;13.10;9.70;;;;;;;;;;6098509;23;20018;-86
2022/03/28 08:38:35;;;;;;;17.38;10.40;;;;;;;;;;6087427;23;20037;-85
2022/03/28 08:41:17;;;;;;;18.80;9.07;;;;;;;;;;6101082;23;20026;-82
2022/03/28 08:43:57;;;;;;;12.65;8.48;;;;;;;;;;6089034;23;20022;-82
2022/03/28 08:46:31;;;;;;;11.80;7.40;;;;;;;;;;6092673;23;20029;-83
2022/03/28 08:49:10;;;;;;;27.90;9.82;;;;;;;;;;6094388;23;20030;-87
2022/03/28 08:51:44;;;;;;;12.50;9.10;;;;;;;;;;6074677;23;20019;-84
2022/03/28 08:55:52;;;;;;;13.77;8.18;;;;;;;;;;6074898;23;20426;-84
2022/03/28 09:14:02;;;;;;;;;;;;;;;;;;;;;
2022/03/28 09:30:08;;;;;;;13.48;9.18;;;;;;;;;;5978588;23;20074;-87
2022/03/28 09:32:53;;;;;;;17.75;8.75;;;;;;;;;;6026089;23;20034;-87
2022/03/28 09:35:24;;;;;;;13.43;8.70;;;;;;;;;;6060289;23;20645;-84
2022/03/28 09:37:58;;;;;;;14.40;8.30;;;;;;;;;;6061165;23;20030;-83
2022/03/28 09:41:04;;;;;;;13.85;9.23;;;;;;;;;;6064604;23;20019;-85
2022/03/28 09:45:28;;;;;;;;;;;;;;;;;;;;;
2022/03/28 09:49:26;;;;;;;13.73;10.03;;;;;;;;;;5939955;24;20024;-86
2022/03/28 09:57:28;;;;;;;18.02;9.32;;;;;;;;;;5965683;23;20036;-82
2022/03/28 10:00:50;;;;;;;18.83;8.63;;;;;;;;;;5893122;24;20179;-81
2022/03/28 10:03:32;;;;;;;18.10;10.68;;;;;;;;;;5947016;24;20028;-82
2022/03/28 10:06:12;;;;;;;10.60;9.23;;;;;;;;;;6054669;23;20030;-85
2022/03/28 10:09:04;;;;;;;8.32;7.40;;;;;;;;;;5987629;23;20035;-82
2022/03/28 10:11:44;;;;;;;10.05;7.60;;;;;;;;;;6001933;23;20023;-83
2022/03/28 10:18:11;;;;;;;8.98;7.13;;;;;;;;;;6001963;23;20023;-84
2022/03/28 10:21:01;;;;;;;8.65;7.78;;;;;;;;;;6027000;23;20035;-85
2022/03/28 10:24:07;;;;;;;11.20;8.55;;;;;;;;;;6027317;23;20027;-87
2022/03/28 10:26:49;;;;;;;9.23;7.03;;;;;;;;;;5979190;23;20031;-87
2022/03/28 10:29:24;;;;;;;11.73;7.40;;;;;;;;;;6033899;23;20027;-86
2022/03/28 10:32:13;;;;;;;10.23;7.78;;;;;;;;;;5981793;23;20914;-86
2022/03/28 10:34:41;;;;;;;12.27;8.05;;;;;;;;;;6004566;23;20510;-84
2022/03/28 10:37:28;;;;;;;13.05;8.88;;;;;;;;;;6004642;23;20037;-82
2022/03/28 10:40:18;;;;;;;11.68;7.95;;;;;;;;;;6038494;23;20030;-84
2022/03/28 10:42:48;;;;;;;14.70;7.65;;;;;;;;;;6053896;23;20042;-84
2022/03/28 10:45:19;;;;;;;15.20;10.05;;;;;;;;;;6063224;23;20038;-83
2022/03/28 10:47:50;;;;;;;11.93;8.90;;;;;;;;;;6093911;23;20019;-83
2022/03/28 10:50:20;;;;;;;19.60;9.25;;;;;;;;;;6089339;23;20029;-82
2022/03/28 10:53:05;;;;;;;12.40;8.80;;;;;;;;;;6039232;23;20038;-78
2022/03/28 10:55:44;;;;;;;12.48;8.23;;;;;;;;;;6073266;23;20019;-76
2022/03/28 10:58:21;;;;;;;15.93;9.48;;;;;;;;;;6090772;23;20038;-77
2022/03/28 11:01:08;;;;;;;14.45;8.35;;;;;;;;;;6095932;23;20018;-77
2022/03/28 11:03:46;;;;;;;20.08;11.80;;;;;;;;;;6099483;23;20386;-78
2022/03/28 11:06:17;;;;;;;15.77;9.40;;;;;;;;;;6090762;23;20026;-77
2022/03/28 11:08:59;;;;;;;13.63;9.32;;;;;;;;;;6095389;23;20027;-80
2022/03/28 11:11:33;;;;;;;8.05;6.35;;;;;;;;;;6099974;23;20018;-77
2022/03/28 11:14:01;;;;;;;48.50;14.70;;;;;;;;;;6063486;23;20026;-77
2022/03/28 11:16:39;;;;;;;18.33;9.23;;;;;;;;;;6089697;23;20053;-78
2022/03/28 11:19:25;;;;;;;18.50;9.43;;;;;;;;;;6099413;23;20041;-77
2022/03/28 11:22:00;;;;;;;16.05;9.20;;;;;;;;;;6089194;23;20643;-78
2022/03/28 11:24:58;;;;;;;35.42;11.45;;;;;;;;;;6097522;23;20018;-78
2022/03/28 11:27:30;;;;;;;54.05;14.80;;;;;;;;;;6099736;23;20018;-77
2022/03/28 11:30:16;;;;;;;13.93;10.75;;;;;;;;;;6092151;23;20027;-77
2022/03/28 11:32:45;;;;;;;22.13;12.65;;;;;;;;;;6098027;23;20065;-78
2022/03/28 11:35:16;;;;;;;15.63;10.05;;;;;;;;;;6100085;23;20473;-77
2022/03/28 11:37:45;;;;;;;11.75;9.30;;;;;;;;;;6093426;23;20037;-76
2022/03/28 11:40:13;;;;;;;14.25;9.18;;;;;;;;;;6093741;23;20018;-77
2022/03/28 11:42:46;;;;;;;14.80;9.70;;;;;;;;;;6088104;23;20398;-76
2022/03/28 11:45:14;;;;;;;18.40;11.07;;;;;;;;;;6094220;23;20026;-76
2022/03/28 11:47:50;;;;;;;15.77;10.77;;;;;;;;;;6098797;23;20018;-77
2022/03/28 11:50:19;;;;;;;24.00;12.40;;;;;;;;;;6090236;23;20030;-75
2022/03/28 11:52:50;;;;;;;16.00;8.45;;;;;;;;;;6095640;23;20493;-78
2022/03/28 11:55:24;;;;;;;15.60;8.25;;;;;;;;;;6098942;23;20728;-77
2022/03/28 11:58:15;;;;;;;15.52;11.15;;;;;;;;;;6091147;23;20458;-75
2022/03/28 12:00:45;;;;;;;14.10;8.43;;;;;;;;;;6096852;23;20883;-76
2022/03/28 12:03:16;;;;;;;15.07;7.47;;;;;;;;;;6098265;23;20029;-75
2022/03/28 12:05:48;;;;;;;15.23;9.38;;;;;;;;;;6092905;23;20022;-75
2022/03/28 12:08:18;;;;;;;15.35;11.48;;;;;;;;;;6096572;23;20021;-76
2022/03/28 12:10:52;;;;;;;16.17;10.77;;;;;;;;;;6098457;23;20770;-75
2022/03/28 12:13:22;;;;;;;29.45;11.82;;;;;;;;;;6093983;23;20030;-75
2022/03/28 12:15:52;;;;;;;;;;;;;;;;;;6063262;23;20030;-75
2022/03/28 12:18:22;;;;;;;16.13;11.27;;;;;;;;;;6089018;23;20526;-75
2022/03/28 12:20:53;;;;;;;16.15;10.40;;;;;;;;;;6095843;23;20026;-76
2022/03/28 12:23:28;;;;;;;16.75;12.63;;;;;;;;;;6098313;23;20456;-75
2022/03/28 12:26:00;;;;;;;19.10;12.70;;;;;;;;;;6091336;23;20037;-82
2022/03/28 12:28:34;;;;;;;16.67;11.30;;;;;;;;;;6071288;23;20025;-74
2022/03/28 12:31:05;;;;;;;15.15;11.32;;;;;;;;;;6098964;23;20018;-75
2022/03/28 12:33:34;;;;;;;20.58;11.27;;;;;;;;;;6092946;23;20030;-75
2022/03/28 12:36:03;;;;;;;19.20;13.32;;;;;;;;;;6099110;23;20018;-74
2022/03/28 12:38:32;;;;;;;24.48;13.85;;;;;;;;;;6087980;23;20356;-75
2022/03/28 12:41:03;;;;;;;14.65;9.27;;;;;;;;;;6094401;23;20058;-77
2022/03/28 12:43:31;;;;;;;;;;;;;;;;;;6099148;23;20025;-74
2022/03/28 12:46:01;;;;;;;17.05;9.48;;;;;;;;;;6090932;23;19921;-86
2022/03/28 12:48:44;;;;;;;17.77;8.38;;;;;;;;;;6039492;23;20041;-87
2022/03/28 12:51:13;;;;;;;17.55;12.65;;;;;;;;;;6098937;23;20025;-83
2022/03/28 12:53:42;;;;;;;19.95;12.65;;;;;;;;;;6067008;23;20031;-86
2022/03/28 12:56:13;;;;;;;18.58;11.13;;;;;;;;;;6073249;23;20019;-86
2022/03/28 12:58:55;;;;;;;14.13;8.65;;;;;;;;;;6038215;23;20034;-82
2022/03/28 13:01:25;;;;;;;15.23;11.10;;;;;;;;;;6093780;23;20031;-83
2022/03/28 13:04:26;;;;;;;18.30;11.43;;;;;;;;;;6098173;23;20018;-81
2022/03/28 13:07:02;;;;;;;18.67;12.50;;;;;;;;;;6018222;23;20600;-85
2022/03/28 13:09:30;;;;;;;13.98;10.07;;;;;;;;;;6092290;23;20034;-81
2022/03/28 13:12:12;;;;;;;19.88;13.45;;;;;;;;;;6073495;23;20018;-84
2022/03/28 13:14:48;;;;;;;15.90;14.23;;;;;;;;;;6087922;23;20037;-83
2022/03/28 13:17:16;;;;;;;19.02;12.75;;;;;;;;;;6093709;23;20037;-82
2022/03/28 13:19:57;;;;;;;20.35;12.88;;;;;;;;;;6098388;23;20619;-80
2022/03/28 13:22:35;;;;;;;16.75;12.15;;;;;;;;;;6061761;23;20038;-84
2022/03/28 13:25:06;;;;;;;19.15;13.55;;;;;;;;;;6094563;23;20034;-85
2022/03/28 13:30:26;;;;;;;15.80;11.45;;;;;;;;;;6089126;23;20258;-82
2022/03/28 13:32:55;;;;;;;16.83;11.65;;;;;;;;;;6094685;23;20027;-83
2022/03/28 13:35:23;;;;;;;21.23;13.52;;;;;;;;;;6098470;23;20015;-84
2022/03/28 13:38:01;;;;;;;15.32;11.50;;;;;;;;;;6090316;23;20022;-82
2022/03/28 13:40:31;;;;;;;20.55;12.27;;;;;;;;;;6097044;23;20026;-83
2022/03/28 13:42:59;;;;;;;17.38;10.52;;;;;;;;;;6098595;23;20454;-83
2022/03/28 13:45:31;;;;;;;13.02;8.90;;;;;;;;;;6092684;23;20332;-85
2022/03/28 13:48:01;;;;;;;15.55;11.18;;;;;;;;;;6097845;23;20021;-83
2022/03/28 13:50:30;;;;;;;21.05;11.05;;;;;;;;;;6088031;23;20031;-82
2022/03/28 13:53:18;;;;;;;17.33;12.05;;;;;;;;;;6093137;23;20031;-83
2022/03/28 13:55:46;;;;;;;20.20;10.90;;;;;;;;;;6098528;23;20015;-83
2022/03/28 13:58:14;;;;;;;15.50;9.25;;;;;;;;;;6089155;23;20033;-82
2022/03/28 14:00:42;;;;;;;18.38;12.45;;;;;;;;;;6095542;23;20022;-83
2022/03/28 14:03:10;;;;;;;12.52;8.60;;;;;;;;;;6098890;23;20017;-86
2022/03/28 14:05:39;;;;;;;16.45;12.75;;;;;;;;;;6093487;23;20476;-83
2022/03/28 14:08:08;;;;;;;19.67;9.75;;;;;;;;;;6098746;23;20014;-81
2022/03/28 14:10:37;;;;;;;18.13;10.30;;;;;;;;;;6089282;23;20358;-82
2022/03/28 14:13:05;;;;;;;15.52;11.88;;;;;;;;;;6095145;23;20030;-84
2022/03/28 14:15:33;;;;;;;17.65;10.65;;;;;;;;;;6094805;23;20019;-82
2022/03/28 14:18:02;;;;;;;20.90;11.30;;;;;;;;;;6091134;23;20420;-82
2022/03/28 14:20:30;;;;;;;32.97;14.20;;;;;;;;;;6098602;23;20442;-82
2022/03/28 14:22:58;;;;;;;13.43;10.10;;;;;;;;;;6098781;23;20506;-82
2022/03/28 14:25:26;;;;;;;15.05;10.13;;;;;;;;;;6094503;23;20023;-82
2022/03/28 14:27:54;;;;;;;16.17;10.05;;;;;;;;;;6099608;23;20509;-83
2022/03/28 14:30:22;;;;;;;16.02;11.20;;;;;;;;;;6090751;23;20026;-82
2022/03/28 14:32:51;;;;;;;56.83;14.82;;;;;;;;;;6096399;23;20031;-84
2022/03/28 14:35:19;;;;;;;17.05;11.70;;;;;;;;;;6099983;23;20015;-84
2022/03/28 14:37:47;;;;;;;15.88;10.68;;;;;;;;;;6066210;23;20026;-82
2022/03/28 14:40:15;;;;;;;22.52;11.07;;;;;;;;;;6073767;23;20026;-81
2022/03/28 14:42:43;;;;;;;13.32;11.88;;;;;;;;;;6100262;23;20031;-83
2022/03/28 14:45:12;;;;;;;14.60;9.23;;;;;;;;;;6095453;23;20022;-84
2022/03/28 14:47:40;;;;;;;25.75;12.40;;;;;;;;;;6099230;23;20048;-83
2022/03/28 14:50:09;;;;;;;51.55;12.48;;;;;;;;;;6065749;23;20030;-84
2022/03/28 14:52:38;;;;;;;123.65;21.95;;;;;;;;;;6096680;23;20033;-77
2022/03/28 14:55:07;;;;;;;19.00;11.95;;;;;;;;;;6063633;23;20025;-77
2022/03/28 14:57:36;;;;;;;18.58;12.35;;;;;;;;;;6093332;23;20037;-77
2022/03/28 15:00:05;;;;;;;14.23;10.35;;;;;;;;;;6099174;23;20014;-75
2022/03/28 15:02:33;;;;;;;20.48;11.73;;;;;;;;;;6088650;23;20506;-77
2022/03/28 15:05:01;;;;;;;20.92;10.10;;;;;;;;;;6095579;23;20030;-76
2022/03/28 15:07:29;;;;;;;12.77;11.23;;;;;;;;;;6098689;23;20021;-75
2022/03/28 15:09:58;;;;;;;21.42;13.07;;;;;;;;;;6063591;23;20023;-91
2022/03/28 15:12:26;;;;;;;18.42;10.00;;;;;;;;;;6095173;23;20015;-91
2022/03/28 15:14:56;;;;;;;18.50;10.15;;;;;;;;;;6100631;23;20338;-81
2022/03/28 15:17:24;;;;;;;18.30;11.30;;;;;;;;;;6094004;23;20033;-82
2022/03/28 15:19:52;;;;;;;19.10;10.52;;;;;;;;;;6074089;23;20014;-85
2022/03/28 15:22:20;;;;;;;16.95;9.27;;;;;;;;;;6087084;23;20030;-85
2022/03/28 15:24:48;;;;;;;15.27;8.75;;;;;;;;;;6063812;23;20033;-80
2022/03/28 15:27:16;;;;;;;12.60;8.32;;;;;;;;;;6098985;23;20014;-82
2022/03/28 15:29:45;;;;;;;14.18;9.65;;;;;;;;;;6066507;23;20026;-80
2022/03/28 15:32:13;;;;;;;19.20;9.43;;;;;;;;;;6099378;23;20021;-82
2022/03/28 15:34:41;;;;;;;17.63;8.45;;;;;;;;;;6088471;23;20037;-83
2022/03/28 15:37:10;;;;;;;14.82;11.02;;;;;;;;;;6063720;23;20033;-87
2022/03/28 15:39:38;;;;;;;16.73;10.07;;;;;;;;;;6098920;23;20019;-87
2022/03/28 15:42:08;;;;;;;13.70;9.50;;;;;;;;;;6087387;23;20034;-83
2022/03/28 15:44:36;;;;;;;13.68;10.23;;;;;;;;;;6072289;23;20635;-80
2022/03/28 15:47:05;;;;;;;20.42;11.20;;;;;;;;;;6098836;23;20018;-81
2022/03/28 15:49:35;;;;;;;16.70;10.32;;;;;;;;;;6067500;23;20026;-82
2022/03/28 15:52:03;;;;;;;24.27;11.30;;;;;;;;;;6099492;23;20014;-82
2022/03/28 15:54:31;;;;;;;15.88;9.40;;;;;;;;;;6088391;23;20034;-83
2022/03/28 15:56:59;;;;;;;19.33;11.07;;;;;;;;;;6095257;23;20031;-79
2022/03/28 15:59:27;;;;;;;13.10;9.18;;;;;;;;;;6098981;23;20026;-80